Time;durP1;ratioP1;P1;durP2;ratioP2;P2;SDS_P1;SDS_P2;PMS_P1;PMS_P2;Temp;Humidity;BMP_temperature;BMP_pressure;BME280_temperature;BME280_humidity;BME280_pressure;Samples;Min_cycle;Max_cycle;Signal;HPM_P1;HPM_P2
2022/10/28 00:01:34;;;;;;;;;5.25;5.25;;;;;22.42;51.19;101220.81;4978758;28;46228;-55
2022/10/28 00:04:01;;;;;;;;;4.00;4.00;;;;;22.43;51.04;101219.03;4979306;28;45270;-55
2022/10/28 00:06:29;;;;;;;;;6.25;6.25;;;;;22.42;51.42;101206.75;4991908;28;45348;-52
2022/10/28 00:08:56;;;;;;;;;9.25;7.00;;;;;22.42;51.44;101214.69;4984308;28;45238;-55
2022/10/28 00:11:29;;;;;;;;;5.25;5.25;;;;;22.42;51.28;101215.53;4982206;28;45630;-53
2022/10/28 00:13:57;;;;;;;;;5.25;5.25;;;;;22.42;51.28;101215.53;4988751;28;45736;-54
2022/10/28 00:16:25;;;;;;;;;6.50;6.50;;;;;22.42;51.48;101218.19;4994144;28;44828;-55
2022/10/28 00:18:52;;;;;;;;;9.75;5.00;;;;;22.42;51.38;101220.81;4991033;28;45246;-53
2022/10/28 00:21:21;;;;;;;;;6.75;5.25;;;;;22.42;51.48;101220.81;4990878;28;46289;-54
2022/10/28 00:23:46;;;;;;;;;8.25;7.75;;;;;22.41;51.33;101218.25;4982761;28;45825;-55
2022/10/28 00:26:15;;;;;;;;;7.25;6.25;;;;;22.41;51.35;101221.75;4977567;28;45425;-56
2022/10/28 00:28:47;;;;;;;;;3.00;3.00;;;;;22.42;51.19;101230.53;4977946;28;45535;-56
2022/10/28 00:31:14;;;;;;;;;7.00;7.00;;;;;22.41;51.20;101218.25;4980383;28;46332;-55
2022/10/28 00:33:40;;;;;;;;;7.75;6.00;;;;;22.41;51.17;101224.41;4981706;28;45841;-55
2022/10/28 00:36:09;;;;;;;;;6.75;6.00;;;;;22.40;51.42;101220.03;4985716;28;45246;-55
2022/10/28 00:38:35;;;;;;;;;7.00;7.00;;;;;22.41;51.31;101226.19;4984862;28;45329;-57
2022/10/28 00:41:00;;;;;;;;;8.00;8.00;;;;;22.39;51.29;101231.53;4992302;28;46890;-55
2022/10/28 00:43:40;;;;;;;;;7.00;6.50;;;;;22.40;51.47;101222.66;4981555;28;45261;-55
2022/10/28 00:46:35;;;;;;;;;6.00;5.50;;;;;22.40;51.38;101217.38;4983840;28;45285;-55
2022/10/28 00:49:09;;;;;;;;;5.00;5.00;;;;;22.40;51.30;101222.66;4984671;28;45256;-54
2022/10/28 00:51:35;;;;;;;;;6.00;5.75;;;;;22.40;51.52;101217.38;4984992;28;46303;-54
2022/10/28 00:54:03;;;;;;;;;8.00;8.00;;;;;22.39;51.33;101215.69;4999518;28;45294;-55
2022/10/28 00:56:32;;;;;;;;;6.50;6.00;;;;;22.38;51.41;101216.63;4988051;28;45353;-54
2022/10/28 00:59:01;;;;;;;;;5.75;5.75;;;;;22.39;51.33;101200.66;4984134;28;45370;-57
2022/10/28 01:01:27;;;;;;;;;4.50;3.75;;;;;22.37;51.10;101202.56;4982886;28;46659;-54
2022/10/28 01:03:54;;;;;;;;;6.00;6.00;;;;;22.39;51.62;101205.97;4985074;28;45330;-55
2022/10/28 01:06:20;;;;;;;;;7.00;6.25;;;;;22.38;51.33;101203.41;4981978;28;45451;-55
2022/10/28 01:08:45;;;;;;;;;4.75;4.50;;;;;22.39;51.22;101205.13;4981117;28;45218;-51
2022/10/28 01:11:34;;;;;;;;;7.25;4.75;;;;;22.38;51.27;101206.88;4980704;28;59189;-55
2022/10/28 01:14:15;;;;;;;;;5.75;5.75;;;;;22.38;51.49;101200.78;4982807;28;45625;-54
2022/10/28 01:16:58;;;;;;;;;9.75;6.00;;;;;22.36;51.21;101206.16;4987977;28;45412;-55
2022/10/28 01:19:42;;;;;;;;;4.75;4.00;;;;;22.36;51.35;101206.16;4982364;28;45162;-54
2022/10/28 01:22:42;;;;;;;;;9.00;6.25;;;;;22.35;51.13;101209.72;4980041;28;46490;-55
2022/10/28 01:25:41;;;;;;;;;7.75;5.25;;;;;22.34;51.44;101202.75;4973068;28;45852;-56
2022/10/28 01:28:45;;;;;;;;;8.25;5.75;;;;;22.34;51.37;101204.50;4981429;28;45222;-53
2022/10/28 01:31:13;;;;;;;;;7.00;6.00;;;;;22.35;51.21;101206.22;4999060;28;45357;-55
2022/10/28 01:33:44;;;;;;;;;6.75;6.00;;;;;22.34;51.46;101192.19;4991217;28;45773;-54
2022/10/28 01:36:40;;;;;;;;;9.00;6.25;;;;;22.34;51.36;101201.88;4979876;28;45790;-53
2022/10/28 01:39:25;;;;;;;;;5.50;5.00;;;;;22.33;51.29;101197.53;5001676;28;45298;-54
2022/10/28 01:41:53;;;;;;;;;5.75;5.00;;;;;22.33;51.51;101194.88;4986267;28;45237;-55
2022/10/28 01:44:30;;;;;;;;;9.50;6.00;;;;;22.33;51.60;101201.03;4986425;28;47224;-55
2022/10/28 01:46:55;;;;;;;;;5.50;5.50;;;;;22.32;51.47;101190.56;4987756;28;45474;-55
2022/10/28 01:49:38;;;;;;;;;9.67;8.00;;;;;22.34;51.53;101193.94;4986119;28;45494;-55
2022/10/28 01:52:07;;;;;;;;;7.00;5.00;;;;;22.33;51.43;101187.84;4980776;28;45398;-53
2022/10/28 01:54:34;;;;;;;;;9.50;7.00;;;;;22.33;51.40;101190.47;4979073;28;46830;-54
2022/10/28 01:57:03;;;;;;;;;8.25;7.00;;;;;22.32;51.33;101180.84;4979840;28;45813;-53
2022/10/28 01:59:30;;;;;;;;;9.50;6.25;;;;;22.32;51.57;101186.13;4979907;28;45538;-55
2022/10/28 02:01:56;;;;;;;;;5.00;5.00;;;;;22.33;51.46;101186.97;4979613;28;45313;-56
2022/10/28 02:04:21;;;;;;;;;5.25;5.25;;;;;22.33;51.53;101181.69;4979231;28;46429;-53
2022/10/28 02:06:51;;;;;;;;;6.50;6.50;;;;;22.33;51.47;101187.84;4979449;28;45341;-54
2022/10/28 02:09:22;;;;;;;;;6.25;5.50;;;;;22.32;51.63;101183.50;4981004;28;45236;-55
2022/10/28 02:12:03;;;;;;;;;7.50;7.00;;;;;22.32;51.28;101177.38;4987466;28;45448;-53
2022/10/28 02:14:59;;;;;;;;;6.00;6.00;;;;;22.33;51.53;101184.31;4980377;28;46684;-54
2022/10/28 02:17:37;;;;;;;;;8.00;6.00;;;;;22.32;51.35;101180.00;4979415;28;45863;-54
2022/10/28 02:20:18;;;;;;;;;6.25;6.00;;;;;22.33;51.77;101179.03;4979890;28;45402;-53
2022/10/28 02:23:05;;;;;;;;;8.00;8.00;;;;;22.32;51.26;101166.81;4979783;28;45405;-51
2022/10/28 02:25:37;;;;;;;;;7.00;6.00;;;;;22.32;51.44;101172.09;4983250;28;47537;-55
2022/10/28 02:28:08;;;;;;;;;6.00;6.00;;;;;22.31;51.71;101165.94;5001537;28;45171;-54
2022/10/28 02:30:41;;;;;;;;;6.00;6.00;;;;;22.32;51.57;101180.00;4982759;28;45361;-53
2022/10/28 02:33:13;;;;;;;;;6.00;6.00;;;;;22.32;51.61;101177.38;4980107;28;45472;-53
2022/10/28 02:35:51;;;;;;;;;6.25;6.00;;;;;22.32;51.66;101172.09;4979673;28;46860;-51
2022/10/28 02:38:22;;;;;;;;;7.00;5.25;;;;;22.32;51.65;101164.16;4984714;28;45751;-51
2022/10/28 02:40:53;;;;;;;;;6.25;5.00;;;;;22.31;51.24;101170.38;4985355;28;45265;-54
2022/10/28 02:43:20;;;;;;;;;8.25;6.25;;;;;22.32;51.50;101164.16;4979173;28;45442;-55
2022/10/28 02:45:51;;;;;;;;;10.75;5.00;;;;;22.33;51.32;101163.19;4979621;28;46695;-54
2022/10/28 02:48:20;;;;;;;;;6.00;5.75;;;;;22.33;51.47;101166.72;4979763;28;45995;-53
2022/10/28 02:50:50;;;;;;;;;6.75;6.00;;;;;22.31;51.37;101163.31;4980157;28;45336;-49
2022/10/28 02:53:21;;;;;;;;;6.25;6.00;;;;;22.32;51.78;101167.66;4978393;28;45875;-54
2022/10/28 02:55:53;;;;;;;;;6.00;5.00;;;;;22.31;51.64;101163.31;4979100;28;46264;-55
2022/10/28 02:58:19;;;;;;;;;8.00;5.75;;;;;22.31;51.47;101168.59;4979009;28;45936;-55
2022/10/28 03:00:45;;;;;;;;;6.75;6.75;;;;;22.32;51.54;101161.53;4979504;28;45193;-56
2022/10/28 03:03:12;;;;;;;;;7.50;6.25;;;;;22.30;51.48;101163.41;4979679;28;45599;-54
2022/10/28 03:05:37;;;;;;;;;9.00;6.75;;;;;22.31;51.51;101165.09;4982618;28;46337;-50
2022/10/28 03:08:02;;;;;;;;;3.00;3.00;;;;;22.30;51.54;101164.25;4982120;28;52580;-51
2022/10/28 03:10:31;;;;;;;;;7.00;6.75;;;;;22.31;51.67;101170.38;4979478;28;45283;-49
2022/10/28 03:12:56;;;;;;;;;6.75;6.00;;;;;22.31;51.61;101154.53;4979621;28;45340;-53
2022/10/28 03:15:21;;;;;;;;;7.00;7.00;;;;;22.30;51.48;101147.56;4978576;28;59404;-54
2022/10/28 03:17:47;;;;;;;;;5.50;5.25;;;;;22.31;51.44;101138.69;4979177;28;45434;-52
2022/10/28 03:20:12;;;;;;;;;8.25;6.00;;;;;22.31;51.53;101143.97;4978977;28;52055;-51
2022/10/28 03:22:37;;;;;;;;;10.25;7.00;;;;;22.30;51.67;101137.84;4978351;28;45562;-51
2022/10/28 03:25:04;;;;;;;;;9.00;5.25;;;;;22.31;51.79;101144.81;4978219;28;60553;-53
2022/10/28 03:27:29;;;;;;;;;7.00;6.00;;;;;22.32;51.45;101143.03;4978131;28;45710;-53
2022/10/28 03:29:54;;;;;;;;;8.00;5.00;;;;;22.32;51.33;101137.75;4978908;28;45345;-55
2022/10/28 03:32:20;;;;;;;;;7.75;4.50;;;;;22.33;51.37;101134.16;4980163;28;45333;-53
2022/10/28 03:34:46;;;;;;;;;6.25;5.75;;;;;22.32;51.44;101135.97;4983782;28;46022;-54
2022/10/28 03:37:11;;;;;;;;;7.00;5.50;;;;;22.31;51.67;101134.25;4979408;28;45355;-54
2022/10/28 03:39:37;;;;;;;;;6.00;5.75;;;;;22.32;51.53;101135.13;4979929;28;45289;-53
2022/10/28 03:42:02;;;;;;;;;7.75;6.00;;;;;22.32;51.47;101137.75;4986686;28;45151;-53
2022/10/28 03:44:27;;;;;;;;;7.00;5.25;;;;;22.32;51.37;101127.19;4986500;28;45329;-56
2022/10/28 03:46:53;;;;;;;;;5.25;4.00;;;;;22.31;51.42;101128.13;4979031;28;45250;-55
2022/10/28 03:49:18;;;;;;;;;6.00;6.00;;;;;22.31;51.50;101125.50;4979144;28;45286;-54
2022/10/28 03:51:43;;;;;;;;;5.75;5.00;;;;;22.31;51.52;101128.97;4979155;28;45317;-53
2022/10/28 03:54:09;;;;;;;;;7.50;6.00;;;;;22.31;51.46;101133.41;4978045;28;46396;-55
2022/10/28 03:56:34;;;;;;;;;6.00;5.00;;;;;22.31;51.66;101128.13;4978395;28;45375;-54
2022/10/28 03:58:59;;;;;;;;;6.00;6.00;;;;;22.31;51.34;101130.78;4987218;28;45399;-55
2022/10/28 04:01:25;;;;;;;;;7.00;6.00;;;;;22.31;51.81;101130.78;4991097;28;46340;-53
2022/10/28 04:03:50;;;;;;;;;8.00;5.00;;;;;22.31;51.50;101128.97;4984697;28;45252;-55
2022/10/28 04:06:15;;;;;;;;;6.50;6.50;;;;;22.29;51.61;101120.28;4978210;28;45362;-56
2022/10/28 04:08:41;;;;;;;;;8.00;6.50;;;;;22.30;51.28;101121.16;4978751;28;45438;-54
2022/10/28 04:11:06;;;;;;;;;6.00;5.25;;;;;22.31;51.57;101122.84;4979056;28;45257;-53
2022/10/28 04:13:32;;;;;;;;;6.50;5.00;;;;;22.30;51.79;101122.00;4977461;28;60989;-54
2022/10/28 04:15:57;;;;;;;;;4.00;3.75;;;;;22.30;51.47;101118.50;4978172;28;45349;-55
2022/10/28 04:18:22;;;;;;;;;7.50;6.25;;;;;22.30;51.60;101121.16;4978305;28;45362;-53
2022/10/28 04:20:48;;;;;;;;;7.00;5.00;;;;;22.29;51.75;101119.44;4978251;28;47747;-55
2022/10/28 04:23:15;;;;;;;;;6.25;6.25;;;;;22.29;51.80;101115.00;4977507;28;46203;-56
2022/10/28 04:25:41;;;;;;;;;5.00;5.00;;;;;22.28;51.75;101118.59;4978496;28;45742;-55
2022/10/28 04:28:06;;;;;;;;;5.25;4.25;;;;;22.30;51.93;101121.16;4979918;28;48138;-51
2022/10/28 04:30:31;;;;;;;;;6.25;6.25;;;;;22.29;51.59;101130.84;4985647;28;45343;-55
2022/10/28 04:32:57;;;;;;;;;6.25;6.00;;;;;22.28;51.74;101123.03;4980131;28;45445;-54
2022/10/28 04:35:23;;;;;;;;;6.25;6.00;;;;;22.29;51.73;101119.44;4977398;28;45319;-55
2022/10/28 04:37:48;;;;;;;;;8.25;5.25;;;;;22.28;51.61;101125.66;4977477;28;45295;-54
2022/10/28 04:40:13;;;;;;;;;7.00;6.00;;;;;22.29;51.52;101130.00;4977596;28;45325;-55
2022/10/28 04:42:39;;;;;;;;;6.00;6.00;;;;;22.28;51.55;101118.59;4978034;28;45228;-55
2022/10/28 04:45:05;;;;;;;;;6.25;5.75;;;;;22.28;51.53;101120.38;4986703;28;45397;-54
2022/10/28 04:47:30;;;;;;;;;6.25;4.75;;;;;22.28;51.88;101123.03;4990817;28;45345;-53
2022/10/28 04:49:55;;;;;;;;;5.00;5.00;;;;;22.29;51.71;101124.72;4978137;28;45373;-55
2022/10/28 04:52:20;;;;;;;;;7.00;7.00;;;;;22.27;51.40;101116.88;4979858;28;45493;-54
2022/10/28 04:54:46;;;;;;;;;4.50;4.00;;;;;22.28;51.61;101107.19;4977786;28;45434;-54
2022/10/28 04:57:11;;;;;;;;;6.00;6.00;;;;;22.28;51.69;101117.75;4981637;28;45368;-53
2022/10/28 04:59:36;;;;;;;;;5.00;5.00;;;;;22.29;51.54;101124.72;4996112;28;45437;-56
2022/10/28 05:02:02;;;;;;;;;8.00;5.00;;;;;22.28;51.74;101118.59;4991466;28;59474;-55
2022/10/28 05:04:30;;;;;;;;;8.75;6.50;;;;;22.27;51.84;101122.16;4978293;28;45321;-54
2022/10/28 05:06:55;;;;;;;;;6.50;6.00;;;;;22.28;51.97;101120.38;4977238;28;45339;-54
2022/10/28 05:09:20;;;;;;;;;8.00;7.00;;;;;22.28;51.70;101123.03;4976605;28;53496;-53
2022/10/28 05:11:46;;;;;;;;;7.00;6.25;;;;;22.27;51.56;101116.03;4976857;28;49798;-52
2022/10/28 05:14:11;;;;;;;;;7.00;5.75;;;;;22.28;51.71;101112.47;4977614;28;45318;-54
2022/10/28 05:16:36;;;;;;;;;4.50;4.50;;;;;22.26;51.40;101115.22;4980059;28;45165;-53
2022/10/28 05:19:02;;;;;;;;;5.00;5.00;;;;;22.27;51.49;101114.25;4982185;28;45219;-54
2022/10/28 05:21:30;;;;;;;;;6.00;4.75;;;;;22.27;51.78;101113.41;4981909;28;45378;-51
2022/10/28 05:23:56;;;;;;;;;5.75;5.00;;;;;22.27;51.55;101116.03;4989731;28;45934;-53
2022/10/28 05:26:21;;;;;;;;;5.50;5.00;;;;;22.27;51.68;101118.69;4991061;28;45363;-51
2022/10/28 05:28:49;;;;;;;;;5.00;5.00;;;;;22.27;51.70;101110.75;4990274;28;45308;-53
2022/10/28 05:31:15;;;;;;;;;6.00;4.00;;;;;22.27;51.77;101110.75;4988385;28;46454;-55
2022/10/28 05:33:41;;;;;;;;;8.50;7.00;;;;;22.26;51.68;101107.28;4993083;28;45221;-54
2022/10/28 05:36:07;;;;;;;;;6.25;4.50;;;;;22.25;51.46;101108.22;4991051;28;49479;-53
2022/10/28 05:38:32;;;;;;;;;4.75;4.25;;;;;22.26;51.67;101116.97;4990879;28;45167;-54
2022/10/28 05:40:57;;;;;;;;;6.75;5.25;;;;;22.26;51.50;101120.50;4990788;28;55719;-53
2022/10/28 05:43:23;;;;;;;;;8.50;6.00;;;;;22.24;51.79;101117.91;4997251;28;44720;-54
2022/10/28 05:45:55;;;;;;;;;6.75;6.75;;;;;22.25;51.41;101108.22;4994218;28;45208;-53
2022/10/28 05:48:21;;;;;;;;;7.25;6.00;;;;;22.26;51.69;101112.56;4993844;28;45314;-55
2022/10/28 05:50:47;;;;;;;;;9.75;6.25;;;;;22.26;51.67;101109.94;4993313;28;45391;-55
2022/10/28 05:53:12;;;;;;;;;8.75;6.25;;;;;22.26;51.34;101114.34;4988241;28;45380;-55
2022/10/28 05:55:37;;;;;;;;;8.00;7.00;;;;;22.26;51.43;101124.91;4985896;28;54713;-56
2022/10/28 05:58:05;;;;;;;;;5.67;5.67;;;;;22.26;51.24;101130.19;4981241;28;50800;-55
2022/10/28 06:00:31;;;;;;;;;11.00;6.00;;;;;22.23;51.19;101121.50;4980892;28;45862;-55
2022/10/28 06:03:10;;;;;;;;;7.25;6.50;;;;;22.22;51.38;101122.44;4978956;28;45394;-54
2022/10/28 06:05:42;;;;;;;;;6.00;6.00;;;;;22.20;51.55;101119.06;4979989;28;45286;-53
2022/10/28 06:08:10;;;;;;;;;6.25;4.50;;;;;22.18;51.41;101120.94;4980118;28;45444;-56
2022/10/28 06:10:35;;;;;;;;;5.75;5.75;;;;;22.17;51.11;101126.28;4980359;28;46647;-54
2022/10/28 06:13:00;;;;;;;;;10.50;8.00;;;;;22.14;51.22;101127.31;4988075;28;45326;-55
2022/10/28 06:15:26;;;;;;;;;7.25;7.25;;;;;22.11;51.18;101124.84;4995615;28;45341;-55
2022/10/28 06:17:51;;;;;;;;;11.25;9.75;;;;;22.12;51.11;101131.81;5001654;28;44909;-55
2022/10/28 06:20:18;;;;;;;;;14.25;13.50;;;;;22.11;51.01;101131.91;4996065;28;52381;-53
2022/10/28 06:22:51;;;;;;;;;12.25;10.00;;;;;22.07;51.49;101131.25;4987902;28;45263;-56
2022/10/28 06:25:16;;;;;;;;;9.50;8.75;;;;;22.05;51.35;101133.97;4981853;28;45255;-56
2022/10/28 06:27:42;;;;;;;;;15.75;11.00;;;;;22.04;51.46;101124.38;4979685;28;45527;-56
2022/10/28 06:30:07;;;;;;;;;12.00;10.00;;;;;22.04;51.40;101136.69;4978698;28;51639;-55
2022/10/28 06:32:33;;;;;;;;;9.50;8.00;;;;;22.03;51.36;101133.22;4979316;28;45270;-56
2022/10/28 06:34:58;;;;;;;;;9.75;9.75;;;;;22.03;51.40;101140.28;4978726;28;45264;-55
2022/10/28 06:37:23;;;;;;;;;9.00;9.00;;;;;22.04;51.30;101145.50;4979086;28;45456;-55
2022/10/28 06:39:51;;;;;;;;;10.00;8.00;;;;;22.04;51.50;101141.97;4978761;28;45361;-54
2022/10/28 06:42:17;;;;;;;;;9.75;8.00;;;;;22.03;51.06;101151.69;4978416;28;45318;-54
2022/10/28 06:44:42;;;;;;;;;8.00;8.00;;;;;22.04;51.04;101157.81;4979025;28;45364;-54
2022/10/28 06:47:08;;;;;;;;;10.25;9.00;;;;;22.03;50.91;101159.63;4978391;28;45504;-55
2022/10/28 06:49:33;;;;;;;;;11.50;9.25;;;;;22.03;51.02;101161.38;4985853;28;50873;-56
2022/10/28 06:51:58;;;;;;;;;11.67;7.67;;;;;22.04;51.11;101165.72;4981394;28;58324;-55
2022/10/28 06:54:24;;;;;;;;;7.00;6.33;;;;;22.02;50.86;101170.25;4978712;28;53988;-56
2022/10/28 06:56:49;;;;;;;;;10.50;8.00;;;;;22.00;51.04;101178.25;4979158;28;45507;-55
2022/10/28 06:59:15;;;;;;;;;12.75;9.00;;;;;22.00;51.07;101177.38;4979569;28;47098;-56
2022/10/28 07:01:40;;;;;;;;;8.25;6.50;;;;;22.00;51.05;101182.66;4979069;28;45459;-56
2022/10/28 07:04:09;;;;;;;;;8.25;7.75;;;;;21.98;50.96;101185.41;4984802;28;45220;-54
2022/10/28 07:06:34;;;;;;;;;8.25;8.25;;;;;21.99;50.99;101186.28;4989236;28;45436;-55
2022/10/28 07:09:00;;;;;;;;;8.75;8.00;;;;;22.00;50.88;101193.22;4982348;28;49137;-55
2022/10/28 07:11:25;;;;;;;;;9.00;8.00;;;;;22.01;50.98;101194.94;4980920;28;45329;-55
2022/10/28 07:13:50;;;;;;;;;11.75;7.75;;;;;22.00;50.71;101198.50;4978546;28;45448;-55
2022/10/28 07:16:16;;;;;;;;;10.25;8.00;;;;;21.99;50.92;101197.66;4983620;28;45619;-54
2022/10/28 07:18:41;;;;;;;;;8.50;7.75;;;;;21.99;50.87;101202.09;4984176;28;52744;-56
2022/10/28 07:21:06;;;;;;;;;11.00;8.75;;;;;21.98;50.80;101200.41;4978749;28;45427;-55
2022/10/28 07:23:33;;;;;;;;;8.00;7.50;;;;;21.96;50.83;101207.53;4980375;28;45374;-56
2022/10/28 07:25:58;;;;;;;;;8.75;7.50;;;;;21.95;51.02;101213.75;4978417;28;45431;-59
2022/10/28 07:28:25;;;;;;;;;8.50;5.00;;;;;21.93;50.82;101209.41;4978024;28;46140;-57
2022/10/28 07:30:51;;;;;;;;;7.00;7.00;;;;;21.93;50.67;101219.13;4978323;28;45697;-56
2022/10/28 07:33:16;;;;;;;;;10.75;8.25;;;;;21.93;50.97;101211.22;4978525;28;45285;-57
2022/10/28 07:35:43;;;;;;;;;9.25;6.75;;;;;21.94;51.28;101218.16;4978238;28;45241;-56
2022/10/28 07:38:08;;;;;;;;;7.25;7.25;;;;;21.95;50.95;101224.31;4977990;28;46246;-56
2022/10/28 07:40:34;;;;;;;;;14.00;9.25;;;;;21.94;50.62;101231.38;4976717;28;45435;-57
2022/10/28 07:42:59;;;;;;;;;8.00;7.75;;;;;21.96;50.43;101233.94;4978057;28;45349;-55
2022/10/28 07:45:24;;;;;;;;;8.75;7.00;;;;;21.92;50.55;101228.81;4981761;28;45321;-57
2022/10/28 07:47:49;;;;;;;;;9.50;8.00;;;;;21.92;50.71;101234.09;4979180;28;45347;-56
2022/10/28 07:50:15;;;;;;;;;11.00;7.50;;;;;21.91;50.57;101247.38;4977876;28;49182;-56
2022/10/28 07:52:41;;;;;;;;;6.50;4.50;;;;;21.91;50.44;101244.75;4977973;28;45524;-56
2022/10/28 07:55:07;;;;;;;;;5.00;5.00;;;;;21.92;50.70;101257.84;4977442;28;46142;-56
2022/10/28 07:57:35;;;;;;;;;9.00;8.00;;;;;21.93;50.72;101249.00;4977570;28;45488;-57
2022/10/28 08:00:01;;;;;;;;;9.00;7.50;;;;;21.98;50.81;101264.59;4977889;28;45315;-55
2022/10/28 08:02:30;;;;;;;;;9.25;9.25;;;;;21.99;50.67;101255.72;4977644;28;45781;-55
2022/10/28 08:04:55;;;;;;;;;10.25;7.25;;;;;22.01;50.48;101253.88;4977987;28;45519;-49
2022/10/28 08:07:21;;;;;;;;;10.00;7.00;;;;;22.04;50.76;101258.97;4980332;28;47218;-56
2022/10/28 08:09:46;;;;;;;;;8.50;7.75;;;;;22.07;50.54;101279.06;4991383;28;45950;-55
2022/10/28 08:12:12;;;;;;;;;11.00;9.00;;;;;22.11;50.70;101283.22;4984750;28;45364;-53
2022/10/28 08:14:38;;;;;;;;;9.50;6.00;;;;;22.13;50.39;101275.25;4983323;28;45559;-55
2022/10/28 08:17:03;;;;;;;;;8.25;6.50;;;;;22.13;50.34;101272.59;4977760;28;46429;-53
2022/10/28 08:19:29;;;;;;;;;8.50;7.00;;;;;22.14;50.49;101276.94;4977922;28;45401;-57
2022/10/28 08:21:54;;;;;;;;;9.00;8.00;;;;;22.15;50.01;101281.28;4977402;28;45880;-56
2022/10/28 08:24:19;;;;;;;;;6.75;6.75;;;;;22.16;50.40;101297.03;4978125;28;45260;-56
2022/10/28 08:26:44;;;;;;;;;8.75;7.75;;;;;22.19;50.38;101288.97;4977264;28;46383;-56
2022/10/28 08:29:11;;;;;;;;;10.00;9.00;;;;;22.17;50.15;101290.81;4977089;28;45294;-56
2022/10/28 08:31:37;;;;;;;;;10.00;8.00;;;;;22.18;49.88;101303.09;4977868;28;45291;-55
2022/10/28 08:34:02;;;;;;;;;6.25;5.00;;;;;22.19;50.36;101296.88;4977804;28;45347;-56
2022/10/28 08:36:30;;;;;;;;;8.75;7.00;;;;;22.20;49.85;101295.06;4987772;28;46440;-56
2022/10/28 08:38:59;;;;;;;;;9.50;7.75;;;;;22.19;50.06;101296.88;4991823;28;45379;-56
2022/10/28 08:41:46;;;;;;;;;8.75;7.00;;;;;22.19;49.80;101291.59;4986364;28;45191;-57
2022/10/28 08:44:36;;;;;;;;;8.00;6.75;;;;;22.19;50.09;101298.66;4978698;28;45242;-57
2022/10/28 08:47:24;;;;;;;;;7.50;7.00;;;;;22.19;50.14;101304.78;4977483;28;47465;-56
2022/10/28 08:49:56;;;;;;;;;12.00;9.00;;;;;22.18;49.89;101307.50;4977248;28;45387;-54
2022/10/28 08:52:30;;;;;;;;;9.50;7.50;;;;;22.17;50.00;101311.94;4980190;28;45277;-56
2022/10/28 08:55:12;;;;;;;;;7.00;7.00;;;;;22.17;50.22;101308.44;4980612;28;45394;-57
2022/10/28 08:57:43;;;;;;;;;9.50;6.25;;;;;22.18;50.42;101312.78;4980338;28;46511;-57
2022/10/28 09:00:19;;;;;;;;;11.50;8.50;;;;;22.19;50.42;101317.13;4980377;28;45863;-54
2022/10/28 09:02:51;;;;;;;;;11.25;8.50;;;;;22.18;50.01;101318.06;4980233;28;45401;-55
2022/10/28 09:05:21;;;;;;;;;10.50;6.00;;;;;22.20;50.07;101337.31;4980670;28;45406;-56
2022/10/28 09:07:47;;;;;;;;;12.50;7.00;;;;;22.20;50.54;101332.91;4981659;28;46329;-58
2022/10/28 09:10:15;;;;;;;;;11.25;9.50;;;;;22.20;50.58;101332.91;4987017;28;45195;-55
2022/10/28 09:12:49;;;;;;;;;9.50;8.25;;;;;22.23;50.90;101338.00;4984654;28;45316;-56
2022/10/28 09:15:29;;;;;;;;;12.25;9.50;;;;;22.24;51.36;101331.78;4980748;28;45361;-56
2022/10/28 09:18:00;;;;;;;;;15.00;11.00;;;;;22.24;51.11;101345.00;4980505;28;45266;-56
2022/10/28 09:20:47;;;;;;;;;8.75;8.00;;;;;22.26;51.19;101341.41;4982608;28;45812;-56
2022/10/28 09:23:21;;;;;;;;;10.00;8.00;;;;;22.26;51.44;101351.97;4986820;28;45311;-56
2022/10/28 09:26:10;;;;;;;;;9.75;8.25;;;;;22.27;51.02;101348.41;4984267;28;45583;-56
2022/10/28 09:28:53;;;;;;;;;11.25;10.00;;;;;22.28;51.03;101356.22;4988722;28;46662;-54
2022/10/28 09:31:39;;;;;;;;;7.75;7.75;;;;;22.29;51.08;101362.38;4992235;28;45323;-55
2022/10/28 09:34:20;;;;;;;;;12.50;9.75;;;;;22.30;51.42;101374.66;4993923;28;44750;-56
2022/10/28 09:37:12;;;;;;;;;9.25;7.75;;;;;22.31;51.38;101376.34;4995222;28;45399;-55
2022/10/28 09:39:44;;;;;;;;;13.00;8.50;;;;;22.31;51.55;101363.16;4989203;28;45264;-55
2022/10/28 09:42:19;;;;;;;;;10.75;8.25;;;;;22.32;51.50;101372.78;4987337;28;45630;-56
2022/10/28 09:44:50;;;;;;;;;10.50;8.75;;;;;22.32;51.64;101370.13;4985460;28;45372;-56
2022/10/28 09:47:24;;;;;;;;;16.25;9.50;;;;;22.33;51.70;101367.41;4985080;28;45322;-56
2022/10/28 09:49:55;;;;;;;;;10.50;7.25;;;;;22.32;51.67;101356.94;4980217;28;46597;-54
2022/10/28 09:52:36;;;;;;;;;9.25;8.25;;;;;22.32;51.40;101357.78;4984650;28;45417;-56
2022/10/28 09:55:14;;;;;;;;;9.00;8.00;;;;;22.33;51.50;101359.47;4980303;28;45337;-56
2022/10/28 09:57:40;;;;;;;;;7.50;5.75;;;;;22.33;51.41;101353.34;4980139;28;45647;-56
2022/10/28 10:00:06;;;;;;;;;8.00;7.25;;;;;22.33;51.47;101342.78;4979607;28;46386;-56
2022/10/28 10:02:34;;;;;;;;;9.25;9.25;;;;;22.34;51.62;101350.63;4978850;28;45337;-56
2022/10/28 10:05:01;;;;;;;;;7.75;6.75;;;;;22.35;51.76;101372.59;4986559;28;45531;-56
2022/10/28 10:07:58;;;;;;;;;9.25;8.00;;;;;22.34;51.29;101378.81;4983945;28;45541;-56
2022/10/28 10:10:29;;;;;;;;;9.50;7.00;;;;;22.35;51.51;101388.44;4996410;28;45178;-56
2022/10/28 10:12:59;;;;;;;;;11.00;8.25;;;;;22.35;51.46;101399.00;4979999;28;45586;-56
2022/10/28 10:15:38;;;;;;;;;9.25;7.75;;;;;22.35;51.56;101406.91;4978677;28;45400;-55
2022/10/28 10:18:10;;;;;;;;;10.00;7.25;;;;;22.35;51.50;101410.44;4977316;28;45552;-56
2022/10/28 10:21:02;;;;;;;;;8.25;7.00;;;;;22.35;51.32;101409.56;4978585;28;45207;-57
2022/10/28 10:23:29;;;;;;;;;11.50;6.75;;;;;22.37;51.33;101405.06;4992284;28;45723;-57
2022/10/28 10:26:01;;;;;;;;;7.75;6.25;;;;;22.37;51.42;101407.69;4984463;28;45609;-55
2022/10/28 10:28:28;;;;;;;;;8.75;7.00;;;;;22.37;51.13;101411.22;4980579;28;45526;-52
2022/10/28 10:31:06;;;;;;;;;8.00;6.75;;;;;22.37;51.46;101412.97;4981757;28;47122;-55
2022/10/28 10:33:35;;;;;;;;;7.25;7.25;;;;;22.37;51.24;101407.69;4986449;28;45687;-55
2022/10/28 10:36:11;;;;;;;;;9.00;8.00;;;;;22.37;51.02;101391.84;4980164;28;45918;-54
2022/10/28 10:38:45;;;;;;;;;9.00;6.50;;;;;22.35;50.90;101386.66;4980206;28;45345;-54
2022/10/28 10:41:10;;;;;;;;;9.00;8.00;;;;;22.38;51.16;101391.75;4979200;28;46690;-54
2022/10/28 10:43:36;;;;;;;;;14.00;7.50;;;;;22.37;50.95;101402.41;4977543;28;45424;-54
2022/10/28 10:46:11;;;;;;;;;6.50;6.25;;;;;22.38;50.91;101404.97;4978949;28;45417;-54
2022/10/28 10:48:37;;;;;;;;;10.25;7.75;;;;;22.39;51.21;101411.13;4978722;28;45344;-55
2022/10/28 10:51:15;;;;;;;;;10.25;7.75;;;;;22.39;51.16;101411.94;4978343;28;46579;-53
2022/10/28 10:53:40;;;;;;;;;8.50;8.25;;;;;22.39;50.68;101422.50;4977477;28;45194;-54
2022/10/28 10:56:09;;;;;;;;;9.25;9.25;;;;;22.41;50.62;101429.53;4978873;28;45282;-54
2022/10/28 10:58:46;;;;;;;;;12.25;9.00;;;;;22.40;51.10;101436.59;4980420;28;45476;-54
2022/10/28 11:01:18;;;;;;;;;7.00;7.00;;;;;22.41;50.76;101434.81;4984959;28;46478;-55
2022/10/28 11:03:53;;;;;;;;;10.25;8.75;;;;;22.41;50.74;101435.69;4979866;28;45364;-54
2022/10/28 11:06:22;;;;;;;;;10.25;10.00;;;;;22.43;50.81;101443.53;4978856;28;45834;-55
2022/10/28 11:08:52;;;;;;;;;8.50;8.25;;;;;22.43;51.04;101451.44;4979691;28;45310;-54
2022/10/28 11:11:20;;;;;;;;;12.50;9.00;;;;;22.43;50.81;101439.09;4978305;28;46716;-56
2022/10/28 11:13:47;;;;;;;;;10.75;8.75;;;;;22.43;50.91;101444.38;4977792;28;45349;-55
2022/10/28 11:16:23;;;;;;;;;11.25;8.75;;;;;22.44;50.88;101447.88;4978491;28;45437;-55
2022/10/28 11:18:51;;;;;;;;;13.50;11.00;;;;;22.44;50.69;101456.63;4978804;28;45365;-55
2022/10/28 11:21:26;;;;;;;;;12.50;8.50;;;;;22.44;50.93;101455.78;4978669;28;47012;-54
2022/10/28 11:24:07;;;;;;;;;11.00;8.50;;;;;22.44;50.98;101459.28;4982640;28;45363;-55
2022/10/28 11:26:43;;;;;;;;;13.25;8.75;;;;;22.44;50.59;101464.56;4985910;28;45394;-55
2022/10/28 11:29:13;;;;;;;;;11.00;8.50;;;;;22.44;51.05;101467.19;4997581;28;45459;-55
2022/10/28 11:31:49;;;;;;;;;9.50;8.25;;;;;22.45;50.64;101462.78;4996769;28;45633;-54
2022/10/28 11:35:10;;;;;;;;;8.75;7.25;;;;;22.45;50.84;101458.34;4992931;28;45082;-54
2022/10/28 11:38:17;;;;;;;;;9.75;8.25;;;;;22.46;50.36;101452.13;4907741;28;45343;-54